ENBL

Bringeland Airport

Førde, Norway
METAR ENBL 181320Z VRB02KT CAVOK 01/M08 Q1013
Observed Flight Rules
Dec-18 @ 13:20 UTC (36 minutes ago) Visual Flight Rules
Wind Visibility Clouds
Variable at 2 knots 10,000+ meters
  • Clear skies
Temperatures Readings
Current 1°C / 34°F
Dewpoint -8°C / 18°F
Humidity 51%
Altimeter 29.91" Hg
Pressure 1013 hPa
Elevation 150
METAR ENBL 181320Z VRB02KT CAVOK 01/M08 Q1013
Observed Flight Rules
Dec-18 @ 13:20 UTC
(36 minutes ago)
VFR
Wind Visibility
Variable at 2 knots 10,000+ meters
Clouds
  • Clear skies
Temperature Dewpoint
1°C / 34°F -8°C / 18°F
Humidity Altimeter Pressure
51% 29.91" Hg 1013 hPa